Wesco, Missouri
Current Conditions -  °F | °C
As of 8:53 AM on Tuesday 21 Oct 2014 (Local Time) from KVIH Reporting Station
Clear Clear  
Wind Chill: 53°   Ceiling: Unl
Heat Index: 53°   Visibility: 10mi
Dew Point: 46°   Wind: 5mph
Humidity: 77%   Direction: 310°NW
Pressure: 30.12"   Gusts: NA
Location:  37.86°N, 91.43°W
Report Text: KVIH 211353Z AUTO 31004KT 10SM CLR 12/08 A3012 RMK AO2 SLP199 T01170078
Loading
Personal Weather Stations






























Interactive Weather Map
Tropical Storm Tracking
New forecast layout! Learn more

10-Day Weather Forecast

Advertisements
Track Severe Weather on mobile